Highley, United Kingdom
Current Conditions -  °F | °C
As of 5:50 AM on Friday 31 Oct 2014 (Local Time) from EGBB Reporting Station
Haze Haze  
Wind Chill: 14°   Ceiling: 600
Heat Index: 14°   Visibility: 2.8mi
Dew Point: 13°   Wind: 5mph
Humidity: 94%   Direction: 160°SSE
Pressure: 29.97"   Gusts: NA
Location:  52.45°N, 2.38°W
Report Text: EGBB 310550Z 16004KT 120V240 4600 HZ BKN006 BKN010 14/13 Q1015
Loading
Personal Weather Stations






























Interactive Weather Map
Tropical Storm Tracking
New forecast layout! Learn more

10-Day Weather Forecast

Advertisements
Track Severe Weather on mobile